createdAt,value
2019-03-09T00:02:08.284Z,66.20
2019-03-09T00:04:36.631Z,66.30
2019-03-09T00:07:04.911Z,66.20
2019-03-09T00:09:33.301Z,66.30
2019-03-09T00:12:01.670Z,66.40
2019-03-09T00:14:29.975Z,66.30
2019-03-09T00:16:58.246Z,66.60
2019-03-09T00:19:26.598Z,66.70
2019-03-09T00:21:54.910Z,66.80
2019-03-09T00:24:30.691Z,66.70
2019-03-09T00:27:16.893Z,67.00
2019-03-09T00:29:50.019Z,66.90
2019-03-09T00:32:19.995Z,67.00
2019-03-09T00:34:48.378Z,67.20
2019-03-09T00:37:16.807Z,67.30
2019-03-09T00:39:45.137Z,67.60
2019-03-09T00:42:13.510Z,67.90
2019-03-09T00:44:41.835Z,68.10
2019-03-09T00:47:10.423Z,68.60
2019-03-09T00:49:38.695Z,68.60
2019-03-09T00:52:07.090Z,68.90
2019-03-09T00:54:35.416Z,69.10
2019-03-09T00:57:03.694Z,69.50
2019-03-09T00:59:31.970Z,69.50
2019-03-09T01:02:00.271Z,69.70
2019-03-09T01:04:28.525Z,70.00
2019-03-09T01:06:56.809Z,71.00
2019-03-09T01:09:25.074Z,70.10
2019-03-09T01:11:53.374Z,70.30
2019-03-09T01:14:21.672Z,70.40
2019-03-09T01:16:50.014Z,70.60
2019-03-09T01:19:18.288Z,70.90
2019-03-09T01:21:46.563Z,71.30
2019-03-09T01:24:14.863Z,71.00
2019-03-09T01:26:43.137Z,70.60
2019-03-09T01:29:11.405Z,70.60
2019-03-09T01:31:39.756Z,70.60
2019-03-09T01:34:08.013Z,70.10
2019-03-09T01:36:36.286Z,70.10
2019-03-09T01:39:05.099Z,70.10
2019-03-09T01:41:33.382Z,70.70
2019-03-09T01:44:01.702Z,71.50
2019-03-09T01:46:30.038Z,71.70
2019-03-09T01:48:58.315Z,72.20
2019-03-09T01:51:26.691Z,72.10
2019-03-09T01:53:55.030Z,72.00
2019-03-09T01:56:23.440Z,71.50
2019-03-09T01:58:51.735Z,71.30
2019-03-09T02:01:20.062Z,71.60
2019-03-09T02:03:48.329Z,71.70
2019-03-09T02:06:16.678Z,72.00
2019-03-09T02:08:44.945Z,72.80
2019-03-09T02:11:13.203Z,73.00
2019-03-09T02:13:41.529Z,73.70
2019-03-09T02:16:09.834Z,74.70
2019-03-09T02:18:38.135Z,74.70
2019-03-09T02:21:06.442Z,75.50
2019-03-09T02:23:34.791Z,75.90
2019-03-09T02:26:03.042Z,76.30
2019-03-09T02:28:31.431Z,76.40
2019-03-09T02:30:59.672Z,76.80
2019-03-09T02:33:27.927Z,77.00
2019-03-09T02:35:56.208Z,77.60
2019-03-09T02:38:32.332Z,77.60
2019-03-09T02:41:00.678Z,77.60
2019-03-09T02:43:29.031Z,78.20
2019-03-09T02:45:57.285Z,78.10
2019-03-09T02:48:25.569Z,78.50
2019-03-09T02:50:56.769Z,78.50
2019-03-09T02:53:25.884Z,79.20
2019-03-09T02:55:54.298Z,79.80
2019-03-09T02:58:22.602Z,80.90
2019-03-09T03:01:04.478Z,80.00
2019-03-09T03:03:32.891Z,80.00
2019-03-09T03:06:01.320Z,80.60
2019-03-09T03:08:29.696Z,80.60
2019-03-09T03:10:57.951Z,81.10
2019-03-09T03:13:26.305Z,81.40
2019-03-09T03:15:54.644Z,81.20
2019-03-09T03:18:22.957Z,81.80
2019-03-09T03:20:51.308Z,81.40
2019-03-09T03:23:19.599Z,81.20
2019-03-09T03:25:47.854Z,81.60
2019-03-09T03:28:16.162Z,81.70
2019-03-09T03:30:44.426Z,81.90
2019-03-09T03:33:13.019Z,82.40
2019-03-09T03:35:41.276Z,82.70
2019-03-09T03:38:09.541Z,82.60
2019-03-09T03:40:37.821Z,82.70
2019-03-09T03:43:06.086Z,82.50
2019-03-09T03:45:34.437Z,82.90
2019-03-09T03:48:02.686Z,83.00
2019-03-09T03:50:30.975Z,83.00
2019-03-09T03:52:59.296Z,82.90
2019-03-09T03:55:27.571Z,83.20
2019-03-09T03:57:55.890Z,83.20
2019-03-09T04:00:24.192Z,83.40
2019-03-09T04:02:52.523Z,83.30
2019-03-09T04:05:20.896Z,83.30
2019-03-09T04:07:49.158Z,83.80
2019-03-09T04:10:17.541Z,84.00
2019-03-09T04:12:45.829Z,84.00
2019-03-09T04:15:14.175Z,84.00
2019-03-09T04:17:42.501Z,84.70
2019-03-09T04:20:11.405Z,84.50
2019-03-09T04:22:39.799Z,84.50
2019-03-09T04:25:08.516Z,84.80
2019-03-09T04:27:36.826Z,84.80
2019-03-09T04:30:10.474Z,85.20
2019-03-09T04:32:38.766Z,85.60
2019-03-09T04:35:07.034Z,85.70
2019-03-09T04:37:35.291Z,86.20
2019-03-09T04:40:05.878Z,86.20
2019-03-09T04:42:34.122Z,86.50
2019-03-09T04:45:02.390Z,86.40
2019-03-09T04:47:30.650Z,86.50
2019-03-09T04:49:58.910Z,86.40
2019-03-09T04:52:27.174Z,86.20
2019-03-09T04:54:55.520Z,86.30
2019-03-09T04:57:23.787Z,86.50
2019-03-09T04:59:52.078Z,86.40
2019-03-09T05:02:20.355Z,86.60
2019-03-09T05:04:48.605Z,86.50
2019-03-09T05:07:20.092Z,87.20
2019-03-09T05:10:21.385Z,86.90
2019-03-09T05:12:58.889Z,87.10
2019-03-09T05:15:28.846Z,87.40
2019-03-09T05:17:57.143Z,87.70
2019-03-09T05:20:25.585Z,87.80
2019-03-09T05:22:53.848Z,87.70
2019-03-09T05:25:22.116Z,87.60
2019-03-09T05:27:50.440Z,87.80
2019-03-09T05:30:38.633Z,88.00
2019-03-09T05:33:07.060Z,88.00
2019-03-09T05:35:35.350Z,88.20
2019-03-09T05:38:03.743Z,88.00
2019-03-09T05:40:32.053Z,88.10
2019-03-09T05:43:00.375Z,88.00
2019-03-09T05:45:28.618Z,88.80
2019-03-09T05:47:56.894Z,88.80
2019-03-09T05:50:25.189Z,88.80
2019-03-09T05:53:05.459Z,88.90
2019-03-09T05:55:33.721Z,88.70
2019-03-09T05:58:01.996Z,88.20
2019-03-09T06:00:30.284Z,88.50
2019-03-09T06:02:58.632Z,88.20
2019-03-09T06:05:30.143Z,87.30
2019-03-09T06:07:58.413Z,86.80
2019-03-09T06:10:26.668Z,86.80
2019-03-09T06:12:54.935Z,86.00
2019-03-09T06:15:23.247Z,85.60
2019-03-09T06:17:51.553Z,85.40
2019-03-09T06:20:19.983Z,84.40
2019-03-09T06:22:55.630Z,84.40
2019-03-09T06:25:23.931Z,84.40
2019-03-09T06:27:52.273Z,84.80
2019-03-09T06:30:20.530Z,85.20
2019-03-09T06:33:23.288Z,84.60
2019-03-09T06:35:57.772Z,84.40
2019-03-09T06:38:50.524Z,84.20
2019-03-09T06:41:27.821Z,83.50
2019-03-09T06:43:56.114Z,83.00
2019-03-09T06:46:24.456Z,83.00
2019-03-09T06:48:52.846Z,82.20
2019-03-09T06:51:21.156Z,80.90
2019-03-09T06:53:49.512Z,79.30
2019-03-09T06:56:17.819Z,78.10
2019-03-09T06:58:46.453Z,77.30
2019-03-09T07:01:22.065Z,77.60
2019-03-09T07:03:50.344Z,77.30
2019-03-09T07:06:18.675Z,78.10
2019-03-09T07:08:46.935Z,78.70
2019-03-09T07:11:15.193Z,78.90
2019-03-09T07:13:52.502Z,78.30
2019-03-09T07:16:14.971Z,78.40
2019-03-09T07:18:43.283Z,78.70
2019-03-09T07:21:11.531Z,77.80
2019-03-09T07:23:39.813Z,77.40
2019-03-09T07:26:08.124Z,76.80
2019-03-09T07:28:36.416Z,76.80
2019-03-09T07:31:04.671Z,75.80
2019-03-09T07:33:32.954Z,74.70
2019-03-09T07:36:01.222Z,73.70
2019-03-09T07:38:29.520Z,75.30
2019-03-09T07:40:57.845Z,74.10
2019-03-09T07:43:26.153Z,73.50
2019-03-09T07:45:54.489Z,69.60
2019-03-09T07:48:22.758Z,69.90
2019-03-09T07:50:51.045Z,69.00
2019-03-09T07:53:19.358Z,69.30
2019-03-09T07:55:47.641Z,68.50
2019-03-09T07:58:15.891Z,68.00
2019-03-09T08:00:44.163Z,67.30
2019-03-09T08:03:13.460Z,66.90
2019-03-09T08:05:41.918Z,66.70
2019-03-09T08:08:10.213Z,64.90
2019-03-09T08:10:38.485Z,62.20
2019-03-09T08:13:06.862Z,59.50
2019-03-09T08:15:35.168Z,59.90
2019-03-09T08:18:04.520Z,60.40
2019-03-09T08:20:32.787Z,61.40
2019-03-09T08:23:01.086Z,62.90
2019-03-09T08:25:29.489Z,64.40
2019-03-09T08:27:57.808Z,65.60
2019-03-09T08:30:27.565Z,66.40
2019-03-09T08:32:56.118Z,66.50
2019-03-09T08:35:24.428Z,66.60
2019-03-09T08:37:52.759Z,63.10
2019-03-09T08:40:21.777Z,57.70
2019-03-09T08:42:50.117Z,55.50
2019-03-09T08:45:22.506Z,58.20
2019-03-09T08:47:52.594Z,61.80
2019-03-09T08:50:23.566Z,64.00
2019-03-09T08:52:51.862Z,66.80
2019-03-09T08:55:20.137Z,66.70
2019-03-09T08:57:48.390Z,66.00
2019-03-09T09:00:30.192Z,59.10
2019-03-09T09:02:58.951Z,53.00
2019-03-09T09:05:27.207Z,48.90
2019-03-09T09:07:55.536Z,48.40
2019-03-09T09:10:23.819Z,48.90
2019-03-09T09:12:52.171Z,50.70
2019-03-09T09:15:20.506Z,50.60
2019-03-09T09:17:48.810Z,52.60
2019-03-09T09:20:24.121Z,55.90
2019-03-09T09:22:52.406Z,61.40
2019-03-09T09:25:20.741Z,63.70
2019-03-09T09:27:49.024Z,56.60
2019-03-09T09:30:20.181Z,51.00
2019-03-09T09:32:48.496Z,47.40
2019-03-09T09:35:17.354Z,44.90
2019-03-09T09:37:45.660Z,43.40
2019-03-09T09:40:23.412Z,44.60
2019-03-09T09:42:51.781Z,46.20
2019-03-09T09:45:20.046Z,49.60
2019-03-09T09:47:48.328Z,53.90
2019-03-09T09:50:17.032Z,55.10
2019-03-09T09:52:45.375Z,53.90
2019-03-09T09:55:15.433Z,49.40
2019-03-09T09:57:43.783Z,44.50
2019-03-09T10:00:20.671Z,42.20
2019-03-09T10:02:48.982Z,41.80
2019-03-09T10:05:17.315Z,42.90
2019-03-09T10:07:45.616Z,42.50
2019-03-09T10:10:16.369Z,42.70
2019-03-09T10:12:44.625Z,41.50
2019-03-09T10:15:15.673Z,42.20
2019-03-09T10:17:43.954Z,44.50
2019-03-09T10:20:13.043Z,48.70
2019-03-09T10:22:41.321Z,51.60
2019-03-09T10:25:10.241Z,52.60
2019-03-09T10:27:38.510Z,48.20
2019-03-09T10:30:23.518Z,42.80
2019-03-09T10:32:51.808Z,43.30
2019-03-09T10:35:20.071Z,45.90
2019-03-09T10:37:49.094Z,49.30
2019-03-09T10:40:17.378Z,52.30
2019-03-09T10:42:45.710Z,54.40
2019-03-09T10:45:15.914Z,55.90
2019-03-09T10:47:44.248Z,58.70
2019-03-09T10:50:15.883Z,63.30
2019-03-09T10:52:44.129Z,62.90
2019-03-09T10:55:29.717Z,62.90
2019-03-09T10:57:57.967Z,62.40
2019-03-09T11:00:36.834Z,61.90
2019-03-09T11:03:05.106Z,61.80
2019-03-09T11:05:33.368Z,62.50
2019-03-09T11:08:03.275Z,63.00
2019-03-09T11:10:31.517Z,59.90
2019-03-09T11:12:59.776Z,57.80
2019-03-09T11:15:28.045Z,57.80
2019-03-09T11:17:56.369Z,57.50
2019-03-09T11:20:24.632Z,58.20
2019-03-09T11:22:52.921Z,58.60
2019-03-09T11:25:21.158Z,59.30
2019-03-09T11:27:49.429Z,60.10
2019-03-09T11:30:29.151Z,58.50
2019-03-09T11:32:57.524Z,58.00
2019-03-09T11:35:25.921Z,57.90
2019-03-09T11:37:56.087Z,56.90
2019-03-09T11:40:24.511Z,57.40
2019-03-09T11:42:54.441Z,54.70
2019-03-09T11:45:22.713Z,50.10
2019-03-09T11:47:50.978Z,48.20
2019-03-09T11:50:20.886Z,47.40
2019-03-09T11:52:49.157Z,47.90
2019-03-09T11:55:17.782Z,49.50
2019-03-09T11:57:47.734Z,52.20
2019-03-09T12:00:27.854Z,53.30
2019-03-09T12:02:56.106Z,55.70
2019-03-09T12:05:27.321Z,58.50
2019-03-09T12:07:55.581Z,61.00
2019-03-09T12:10:23.862Z,66.00
2019-03-09T12:12:52.126Z,71.50
2019-03-09T12:15:20.402Z,73.10
2019-03-09T12:17:50.507Z,73.60
2019-03-09T12:20:20.329Z,74.80
2019-03-09T12:22:48.609Z,72.70
2019-03-09T12:25:17.418Z,71.80
2019-03-09T12:27:45.682Z,71.80
2019-03-09T12:30:20.118Z,72.00
2019-03-09T12:32:48.461Z,71.20
2019-03-09T12:35:16.732Z,70.00
2019-03-09T12:37:45.001Z,71.40
2019-03-09T12:40:20.315Z,69.40
2019-03-09T12:42:48.586Z,69.50
2019-03-09T12:45:17.198Z,68.70
2019-03-09T12:47:45.538Z,64.80
2019-03-09T12:50:18.779Z,65.80
2019-03-09T12:52:47.072Z,65.80
2019-03-09T12:55:15.381Z,64.50
2019-03-09T12:57:43.641Z,63.20
2019-03-09T13:00:15.782Z,63.00
2019-03-09T13:02:44.142Z,63.30
2019-03-09T13:05:12.511Z,62.00
2019-03-09T13:07:40.856Z,62.10
2019-03-09T13:10:09.847Z,62.30
2019-03-09T13:12:45.958Z,63.30
2019-03-09T13:15:15.443Z,64.50
2019-03-09T13:17:44.103Z,63.70
2019-03-09T13:20:14.888Z,64.00
2019-03-09T13:22:43.307Z,61.80
2019-03-09T13:25:14.627Z,60.70
2019-03-09T13:27:42.944Z,60.70
2019-03-09T13:30:19.548Z,61.00
2019-03-09T13:32:47.848Z,59.70
2019-03-09T13:35:17.771Z,58.90
2019-03-09T13:37:46.072Z,58.70
2019-03-09T13:40:15.872Z,58.80
2019-03-09T13:42:44.225Z,58.60
2019-03-09T13:45:18.528Z,58.50
2019-03-09T13:47:46.911Z,58.90
2019-03-09T13:50:15.543Z,58.90
2019-03-09T13:52:44.014Z,58.70
2019-03-09T13:55:14.707Z,57.70
2019-03-09T13:57:42.980Z,56.90
2019-03-09T14:00:18.771Z,56.20
2019-03-09T14:02:48.370Z,55.90
2019-03-09T14:05:16.711Z,54.60
2019-03-09T14:07:45.074Z,55.00
2019-03-09T14:11:01.555Z,54.00
2019-03-09T14:12:44.931Z,55.60
2019-03-09T14:15:18.371Z,55.00
2019-03-09T14:17:57.252Z,54.80
2019-03-09T14:20:16.928Z,55.80
2019-03-09T14:22:45.802Z,55.40
2019-03-09T14:25:17.335Z,55.40
2019-03-09T14:27:45.711Z,54.50
2019-03-09T14:30:15.793Z,54.30
2019-03-09T14:32:44.129Z,54.20
2019-03-09T14:35:12.488Z,53.60
2019-03-09T14:37:40.809Z,52.90
2019-03-09T14:40:11.502Z,52.70
2019-03-09T14:42:39.807Z,53.80
2019-03-09T14:45:11.498Z,53.70
2019-03-09T14:47:39.851Z,53.30
2019-03-09T14:50:08.962Z,53.90
2019-03-09T14:52:37.363Z,54.80
2019-03-09T14:55:10.505Z,54.70
2019-03-09T14:57:38.858Z,57.30
2019-03-09T15:00:18.987Z,59.60
2019-03-09T15:02:47.229Z,62.40
2019-03-09T15:05:15.537Z,61.60
2019-03-09T15:07:44.008Z,62.40
2019-03-09T15:10:12.730Z,62.30
2019-03-09T15:12:41.022Z,62.80
2019-03-09T15:15:15.694Z,61.70
2019-03-09T15:17:44.039Z,60.10
2019-03-09T15:20:13.709Z,61.10
2019-03-09T15:22:42.060Z,62.70
2019-03-09T15:25:18.277Z,63.60
2019-03-09T15:27:46.634Z,64.70
2019-03-09T15:30:19.119Z,63.80
2019-03-09T15:32:47.466Z,63.90
2019-03-09T15:35:16.746Z,64.40
2019-03-09T15:37:45.041Z,64.60
2019-03-09T15:40:17.266Z,64.80
2019-03-09T15:42:45.693Z,64.70
2019-03-09T15:45:17.129Z,63.80
2019-03-09T15:47:45.410Z,63.60
2019-03-09T15:50:15.233Z,63.40
2019-03-09T15:52:43.714Z,62.60
2019-03-09T15:55:12.315Z,62.20
2019-03-09T15:57:40.702Z,61.40
2019-03-09T16:00:17.934Z,61.00
2019-03-09T16:02:46.265Z,61.80
2019-03-09T16:05:14.753Z,62.70
2019-03-09T16:07:43.274Z,62.60
2019-03-09T16:10:14.057Z,63.60
2019-03-09T16:12:42.407Z,64.00
2019-03-09T16:15:15.442Z,63.90
2019-03-09T16:17:43.755Z,64.10
2019-03-09T16:20:17.756Z,62.80
2019-03-09T16:22:46.067Z,62.10
2019-03-09T16:25:14.629Z,62.80
2019-03-09T16:27:42.913Z,62.90
2019-03-09T16:30:17.261Z,62.70
2019-03-09T16:32:45.586Z,61.90
2019-03-09T16:35:13.931Z,62.10
2019-03-09T16:37:42.243Z,62.30
2019-03-09T16:40:13.119Z,62.70
2019-03-09T16:42:41.448Z,62.30
2019-03-09T16:45:12.438Z,61.80
2019-03-09T16:47:40.750Z,61.90
2019-03-09T16:50:14.099Z,61.90
2019-03-09T16:52:42.610Z,63.20
2019-03-09T16:55:11.057Z,65.20
2019-03-09T16:57:39.619Z,67.10
2019-03-09T17:00:22.125Z,69.80
2019-03-09T17:02:50.546Z,71.70
2019-03-09T17:05:18.952Z,71.80
2019-03-09T17:07:47.230Z,73.10
2019-03-09T17:10:28.979Z,73.60
2019-03-09T17:12:57.383Z,74.70
2019-03-09T17:15:25.740Z,75.80
2019-03-09T17:17:54.027Z,76.20
2019-03-09T17:20:22.338Z,76.90
2019-03-09T17:22:50.734Z,77.50
2019-03-09T17:25:19.039Z,77.70
2019-03-09T17:27:47.313Z,78.50
2019-03-09T17:30:22.398Z,79.50
2019-03-09T17:32:50.706Z,80.10
2019-03-09T17:35:19.038Z,80.90
2019-03-09T17:37:47.435Z,81.00
2019-03-09T17:40:16.840Z,81.40
2019-03-09T17:42:45.288Z,80.70
2019-03-09T17:45:21.794Z,80.50
2019-03-09T17:47:50.097Z,80.90
2019-03-09T17:50:18.434Z,81.10
2019-03-09T17:52:46.819Z,79.80
2019-03-09T17:55:21.163Z,79.20
2019-03-09T17:57:49.473Z,79.10
2019-03-09T18:00:20.367Z,80.30
2019-03-09T18:02:48.754Z,79.80
2019-03-09T18:05:19.438Z,79.50
2019-03-09T18:07:51.954Z,80.00
2019-03-09T18:10:27.722Z,80.10
2019-03-09T18:12:56.089Z,80.90
2019-03-09T18:15:26.105Z,81.50
2019-03-09T18:18:08.571Z,81.20
2019-03-09T18:20:43.352Z,77.90
2019-03-09T18:23:13.028Z,77.60
2019-03-09T18:25:43.886Z,76.80
2019-03-09T18:28:14.480Z,77.50
2019-03-09T18:30:47.576Z,78.70
2019-03-09T18:33:19.835Z,78.50
2019-03-09T18:35:55.908Z,78.80
2019-03-09T18:38:26.998Z,78.90
2019-03-09T18:41:04.079Z,79.20
2019-03-09T18:43:32.364Z,79.40
2019-03-09T18:46:05.170Z,79.80
2019-03-09T18:48:33.565Z,80.20
2019-03-09T18:51:03.563Z,80.70
2019-03-09T18:53:39.726Z,80.70
2019-03-09T18:56:09.951Z,80.70
2019-03-09T18:58:40.064Z,80.70
2019-03-09T19:01:08.394Z,80.60
2019-03-09T19:03:38.419Z,80.40
2019-03-09T19:06:06.708Z,80.30
2019-03-09T19:08:38.013Z,80.50
2019-03-09T19:11:07.937Z,80.60
2019-03-09T19:13:38.962Z,80.60
2019-03-09T19:16:09.025Z,80.30
2019-03-09T19:18:39.039Z,80.60
2019-03-09T19:21:09.348Z,80.00
2019-03-09T19:23:40.743Z,79.90
2019-03-09T19:26:09.149Z,78.60
2019-03-09T19:28:37.419Z,79.10
2019-03-09T19:31:05.794Z,78.30
2019-03-09T19:33:34.239Z,78.60
2019-03-09T19:36:02.610Z,79.20
2019-03-09T19:38:30.968Z,79.60
2019-03-09T19:40:59.312Z,80.00
2019-03-09T19:43:27.638Z,79.20
2019-03-09T19:45:55.909Z,80.00
2019-03-09T19:48:24.191Z,79.10
2019-03-09T19:50:52.518Z,78.30
2019-03-09T19:53:20.808Z,76.60
2019-03-09T19:55:49.160Z,77.30
2019-03-09T19:58:17.513Z,75.20
2019-03-09T20:00:45.798Z,75.70
2019-03-09T20:03:14.162Z,75.60
2019-03-09T20:05:42.627Z,75.20
2019-03-09T20:08:10.912Z,76.60
2019-03-09T20:10:39.195Z,78.20
2019-03-09T20:13:07.450Z,78.90
2019-03-09T20:15:35.822Z,79.80
2019-03-09T20:18:04.128Z,80.30
2019-03-09T20:20:32.546Z,80.90
2019-03-09T20:23:00.880Z,81.10
2019-03-09T20:25:29.315Z,82.00
2019-03-09T20:27:57.662Z,82.40
2019-03-09T20:30:25.924Z,82.40
2019-03-09T20:32:54.177Z,82.70
2019-03-09T20:35:22.498Z,83.00
2019-03-09T20:37:50.817Z,82.80
2019-03-09T20:40:19.136Z,82.60
2019-03-09T20:42:47.399Z,82.60
2019-03-09T20:45:16.634Z,83.00
2019-03-09T20:47:44.973Z,82.90
2019-03-09T20:50:21.695Z,83.20
2019-03-09T20:52:50.045Z,83.70
2019-03-09T20:55:18.414Z,84.50
2019-03-09T20:57:46.706Z,83.40
2019-03-09T21:00:21.685Z,82.90
2019-03-09T21:02:50.014Z,82.60
2019-03-09T21:05:18.345Z,82.80
2019-03-09T21:07:46.655Z,81.80
2019-03-09T21:10:19.728Z,81.90
2019-03-09T21:12:55.997Z,81.20
2019-03-09T21:15:24.396Z,79.60
2019-03-09T21:17:52.793Z,79.30
2019-03-09T21:20:21.116Z,80.20
2019-03-09T21:22:49.397Z,80.50
2019-03-09T21:25:17.833Z,81.20
2019-03-09T21:27:46.332Z,82.70
2019-03-09T21:30:14.965Z,82.10
2019-03-09T21:32:43.311Z,82.90
2019-03-09T21:35:11.655Z,83.20
2019-03-09T21:37:39.964Z,83.50
2019-03-09T21:40:08.311Z,84.10
2019-03-09T21:42:36.704Z,83.70
2019-03-09T21:45:13.378Z,83.20
2019-03-09T21:47:46.631Z,82.60
2019-03-09T21:50:18.011Z,83.00
2019-03-09T21:52:46.449Z,83.20
2019-03-09T21:55:18.133Z,83.60
2019-03-09T21:57:46.624Z,83.70
2019-03-09T22:00:19.815Z,84.20
2019-03-09T22:02:50.196Z,84.50
2019-03-09T22:05:18.106Z,84.90
2019-03-09T22:07:46.393Z,84.50
2019-03-09T22:10:14.645Z,84.30
2019-03-09T22:12:42.945Z,83.90
2019-03-09T22:15:15.118Z,83.40
2019-03-09T22:17:43.438Z,82.70
2019-03-09T22:20:12.889Z,82.80
2019-03-09T22:22:41.198Z,83.30
2019-03-09T22:25:11.581Z,83.40
2019-03-09T22:27:40.091Z,83.30
2019-03-09T22:30:11.442Z,83.10
2019-03-09T22:32:39.818Z,82.90
2019-03-09T22:35:10.941Z,83.40
2019-03-09T22:37:39.282Z,83.20
2019-03-09T22:40:10.812Z,82.60
2019-03-09T22:42:39.185Z,82.10
2019-03-09T22:45:10.320Z,81.70
2019-03-09T22:47:38.713Z,81.70
2019-03-09T22:50:15.550Z,81.80
2019-03-09T22:52:43.817Z,80.70
2019-03-09T22:55:12.113Z,80.60
2019-03-09T22:57:40.423Z,80.00
2019-03-09T23:00:11.674Z,80.10
2019-03-09T23:02:40.207Z,79.90
2019-03-09T23:05:10.293Z,80.40
2019-03-09T23:07:38.614Z,80.90
2019-03-09T23:10:15.659Z,80.60
2019-03-09T23:12:43.981Z,80.60
2019-03-09T23:15:14.762Z,80.50
2019-03-09T23:17:43.111Z,80.40
2019-03-09T23:20:13.317Z,80.40
2019-03-09T23:22:41.645Z,80.30
2019-03-09T23:25:10.756Z,80.90
2019-03-09T23:27:39.062Z,80.70
2019-03-09T23:30:23.828Z,80.80
2019-03-09T23:32:52.147Z,80.40
2019-03-09T23:35:21.108Z,80.30
2019-03-09T23:37:49.364Z,79.90
2019-03-09T23:40:19.959Z,79.50
2019-03-09T23:42:48.232Z,79.70
2019-03-09T23:45:18.254Z,79.60
2019-03-09T23:47:46.585Z,79.30
2019-03-09T23:50:16.419Z,79.40
2019-03-09T23:52:45.029Z,79.30
2019-03-09T23:55:21.215Z,78.50
2019-03-09T23:57:43.557Z,78.50
